Terminal Aerodrome Forecast
Issued by NWS

Home | Current Version | Previous Version | Text Only | Print | Product List | Glossary On
Versions: 1 2 3 4 5 6 7 8 9 10 11 12 13 14
000
FTUS45 KVEF 302000 AAA
TAFHND
TAF AMD
KHND 302022Z 3020/3118 36006KT P6SM -RA FEW010 BKN030 OVC045
     FM310300 VRB05KT P6SM VCSH FEW010 BKN030 OVC045
     FM311400 01006KT P6SM SCT030 OVC050=

USA.gov is the U.S. government's official web portal to all federal, state and local government web resources and services.